createdAt,value
2018-05-25T00:00:20.096Z,21.33
2018-05-25T00:02:50.557Z,22.33
2018-05-25T00:05:22.014Z,21.67
2018-05-25T00:07:52.858Z,20.00
2018-05-25T00:10:23.307Z,23.67
2018-05-25T00:12:53.742Z,20.00
2018-05-25T00:15:25.271Z,20.00
2018-05-25T00:17:55.924Z,22.67
2018-05-25T00:23:30.385Z,22.67
2018-05-25T00:26:00.888Z,25.33
2018-05-25T00:28:31.577Z,23.00
2018-05-25T00:31:02.116Z,19.00
2018-05-25T00:36:36.992Z,25.67
2018-05-25T00:39:07.558Z,22.67
2018-05-25T00:41:38.079Z,24.33
2018-05-25T00:44:08.632Z,24.33
2018-05-25T00:46:39.079Z,20.67
2018-05-25T00:53:19.015Z,22.00
2018-05-25T00:55:52.991Z,23.00
2018-05-25T00:58:24.643Z,18.33
2018-05-25T01:00:56.518Z,21.00
2018-05-25T01:03:29.025Z,23.33
2018-05-25T01:06:00.697Z,26.33
2018-05-25T01:08:35.839Z,25.00
2018-05-25T01:11:07.560Z,24.67
2018-05-25T01:13:38.290Z,22.67
2018-05-25T01:16:29.399Z,25.67
2018-05-25T01:18:59.898Z,24.00
2018-05-25T01:21:30.454Z,23.67
2018-05-25T01:24:01.576Z,23.67
2018-05-25T01:26:32.472Z,24.33
2018-05-25T01:29:02.983Z,21.67
2018-05-25T01:31:33.912Z,24.33
2018-05-25T01:34:04.459Z,23.33
2018-05-25T01:36:34.958Z,20.67
2018-05-25T01:41:45.898Z,23.75
2018-05-25T01:44:16.373Z,23.00
2018-05-25T01:46:48.373Z,25.33
2018-05-25T01:49:18.905Z,23.67
2018-05-25T01:51:49.482Z,24.00
2018-05-25T01:54:20.368Z,26.67
2018-05-25T01:56:50.894Z,25.00
2018-05-25T01:59:22.407Z,22.00
2018-05-25T02:01:53.392Z,24.00
2018-05-25T02:04:24.749Z,25.33
2018-05-25T02:06:55.326Z,27.67
2018-05-25T02:09:28.460Z,22.75
2018-05-25T02:11:58.841Z,25.67
2018-05-25T02:14:29.812Z,21.67
2018-05-25T02:17:00.434Z,24.67
2018-05-25T02:19:32.211Z,23.00
2018-05-25T02:22:04.050Z,24.67
2018-05-25T02:24:34.579Z,25.00
2018-05-25T02:27:05.172Z,27.67
2018-05-25T02:29:35.943Z,23.00
2018-05-25T02:32:06.537Z,22.67
2018-05-25T02:34:37.064Z,24.67
2018-05-25T02:37:08.960Z,25.00
2018-05-25T02:39:39.518Z,25.00
2018-05-25T02:42:10.047Z,23.33
2018-05-25T02:44:40.875Z,23.67
2018-05-25T02:47:11.458Z,23.67
2018-05-25T02:49:42.030Z,25.00
2018-05-25T02:52:13.087Z,25.67
2018-05-25T02:54:43.579Z,25.00
2018-05-25T02:57:14.193Z,22.00
2018-05-25T02:59:49.382Z,26.67
2018-05-25T03:02:20.014Z,25.33
2018-05-25T03:04:50.590Z,21.67
2018-05-25T03:07:22.407Z,21.00
2018-05-25T03:09:52.856Z,24.33
2018-05-25T03:12:23.617Z,23.67
2018-05-25T03:14:54.324Z,24.67
2018-05-25T03:17:24.962Z,22.00
2018-05-25T03:19:55.532Z,21.67
2018-05-25T03:22:26.088Z,26.67
2018-05-25T03:24:56.615Z,21.67
2018-05-25T03:27:27.103Z,18.33
2018-05-25T03:29:57.710Z,22.00
2018-05-25T03:32:28.207Z,19.67
2018-05-25T03:34:58.745Z,21.33
2018-05-25T03:37:29.255Z,23.00
2018-05-25T03:39:59.820Z,20.67
2018-05-25T03:42:30.324Z,22.00
2018-05-25T03:45:00.823Z,20.00
2018-05-25T03:47:33.105Z,21.00
2018-05-25T03:50:03.630Z,24.00
2018-05-25T03:52:34.229Z,19.67
2018-05-25T03:55:05.175Z,25.00
2018-05-25T03:57:35.704Z,23.67
2018-05-25T04:00:18.149Z,26.33
2018-05-25T04:02:48.379Z,21.67
2018-05-25T04:05:19.444Z,22.33
2018-05-25T04:07:49.991Z,21.67
2018-05-25T04:10:20.534Z,20.00
2018-05-25T04:12:51.090Z,21.33
2018-05-25T04:15:22.439Z,21.00
2018-05-25T04:17:53.034Z,21.00
2018-05-25T04:20:23.556Z,23.00
2018-05-25T04:22:54.068Z,21.67
2018-05-25T04:25:24.586Z,21.67
2018-05-25T04:27:55.223Z,20.67
2018-05-25T04:30:25.735Z,22.33
2018-05-25T04:32:56.334Z,21.67
2018-05-25T04:35:28.306Z,24.67
2018-05-25T04:37:58.923Z,23.00
2018-05-25T04:40:30.221Z,21.00
2018-05-25T04:43:00.879Z,24.67
2018-05-25T04:45:32.691Z,18.33
2018-05-25T04:48:03.255Z,23.67
2018-05-25T04:50:33.815Z,21.67
2018-05-25T04:53:04.344Z,24.00
2018-05-25T04:55:34.924Z,20.67
2018-05-25T04:58:05.596Z,22.33
2018-05-25T05:00:36.174Z,23.33
2018-05-25T05:03:06.758Z,24.00
2018-05-25T05:05:37.361Z,24.33
2018-05-25T05:08:08.062Z,25.67
2018-05-25T05:10:38.886Z,22.33
2018-05-25T05:13:09.410Z,21.67
2018-05-25T05:15:39.841Z,22.67
2018-05-25T05:18:10.482Z,23.33
2018-05-25T05:20:40.999Z,19.67
2018-05-25T05:23:13.841Z,20.00
2018-05-25T05:25:44.351Z,24.67
2018-05-25T05:28:14.882Z,24.33
2018-05-25T05:30:45.907Z,24.67
2018-05-25T05:33:16.486Z,17.00
2018-05-25T05:35:47.024Z,21.33
2018-05-25T05:38:17.877Z,22.00
2018-05-25T05:40:48.472Z,20.67
2018-05-25T05:43:20.952Z,21.00
2018-05-25T05:45:51.506Z,22.33
2018-05-25T05:48:22.125Z,21.00
2018-05-25T05:50:53.038Z,24.33
2018-05-25T05:53:23.722Z,22.00
2018-05-25T05:55:54.332Z,23.67
2018-05-25T05:58:25.182Z,21.00
2018-05-25T06:00:55.754Z,19.67
2018-05-25T06:03:26.280Z,22.00
2018-05-25T06:05:57.164Z,21.33
2018-05-25T06:08:28.592Z,21.67
2018-05-25T06:10:59.264Z,24.00
2018-05-25T06:13:29.759Z,20.00
2018-05-25T06:16:00.330Z,22.33
2018-05-25T06:18:31.098Z,20.67
2018-05-25T06:21:01.675Z,19.33
2018-05-25T06:23:32.234Z,21.67
2018-05-25T06:26:03.241Z,22.00
2018-05-25T06:28:33.798Z,23.67
2018-05-25T06:31:04.279Z,21.00
2018-05-25T06:33:35.332Z,21.00
2018-05-25T06:36:05.891Z,20.67
2018-05-25T06:38:36.410Z,22.33
2018-05-25T06:41:06.960Z,20.00
2018-05-25T06:43:37.689Z,21.67
2018-05-25T06:46:08.208Z,21.33
2018-05-25T06:48:38.691Z,18.00
2018-05-25T06:51:09.241Z,24.00
2018-05-25T06:53:41.221Z,22.00
2018-05-25T06:56:11.799Z,22.33
2018-05-25T06:58:42.315Z,21.33
2018-05-25T07:01:12.870Z,20.67
2018-05-25T07:03:43.399Z,22.00
2018-05-25T07:06:14.011Z,22.00
2018-05-25T07:08:44.580Z,20.67
2018-05-25T07:11:15.173Z,22.67
2018-05-25T07:13:45.695Z,23.67
2018-05-25T07:16:16.255Z,21.67
2018-05-25T07:18:47.143Z,19.67
2018-05-25T07:21:17.814Z,21.67
2018-05-25T07:23:48.359Z,19.67
2018-05-25T07:26:18.887Z,22.00
2018-05-25T07:28:49.933Z,18.33
2018-05-25T07:31:21.561Z,18.67
2018-05-25T07:33:52.390Z,21.00
2018-05-25T07:36:22.908Z,22.00
2018-05-25T07:38:53.487Z,22.67
2018-05-25T07:41:24.255Z,19.00
2018-05-25T07:43:54.907Z,20.00
2018-05-25T07:46:25.431Z,23.67
2018-05-25T07:48:55.953Z,16.00
2018-05-25T07:51:26.519Z,18.67
2018-05-25T07:53:57.061Z,17.33
2018-05-25T07:56:28.249Z,18.00
2018-05-25T07:58:58.742Z,19.00
2018-05-25T08:01:29.409Z,20.67
2018-05-25T08:04:00.585Z,20.67
2018-05-25T08:06:31.103Z,19.00
2018-05-25T08:09:02.487Z,19.00
2018-05-25T08:11:33.335Z,22.67
2018-05-25T08:14:03.863Z,19.00
2018-05-25T08:16:34.367Z,23.33
2018-05-25T08:19:04.974Z,24.00
2018-05-25T08:21:36.170Z,23.33
2018-05-25T08:24:06.902Z,21.67
2018-05-25T08:26:37.409Z,24.00
2018-05-25T08:29:07.934Z,23.00
2018-05-25T08:31:40.857Z,24.00
2018-05-25T08:34:11.609Z,22.67
2018-05-25T08:36:42.264Z,24.00
2018-05-25T08:39:13.219Z,24.33
2018-05-25T08:41:46.805Z,23.67
2018-05-25T08:46:50.305Z,26.33
2018-05-25T08:49:21.003Z,23.00
2018-05-25T08:51:52.061Z,24.00
2018-05-25T08:54:22.723Z,25.00
2018-05-25T08:56:53.403Z,23.00
2018-05-25T08:59:24.203Z,24.00
2018-05-25T09:01:54.748Z,24.67
2018-05-25T09:04:25.371Z,25.00
2018-05-25T09:06:56.226Z,25.33
2018-05-25T09:09:26.802Z,24.00
2018-05-25T09:12:00.064Z,25.25
2018-05-25T09:14:31.779Z,25.00
2018-05-25T09:17:03.087Z,26.67
2018-05-25T09:19:33.702Z,24.67
2018-05-25T09:22:04.397Z,24.67
2018-05-25T09:24:35.783Z,25.67
2018-05-25T09:27:06.827Z,26.00
2018-05-25T09:29:38.231Z,27.00
2018-05-25T09:32:08.763Z,25.67
2018-05-25T09:34:39.791Z,26.33
2018-05-25T09:37:10.339Z,23.00
2018-05-25T09:39:40.974Z,26.67
2018-05-25T09:42:11.756Z,27.00
2018-05-25T09:44:42.331Z,25.33
2018-05-25T09:47:13.323Z,25.67
2018-05-25T09:49:44.763Z,28.00
2018-05-25T09:52:15.451Z,25.33
2018-05-25T09:54:46.382Z,24.33
2018-05-25T09:57:18.897Z,26.33
2018-05-25T09:59:50.047Z,26.33
2018-05-25T10:02:20.578Z,26.00
2018-05-25T10:04:51.104Z,26.67
2018-05-25T10:07:21.821Z,27.00
2018-05-25T10:09:52.313Z,26.67
2018-05-25T10:12:23.323Z,24.33
2018-05-25T10:14:56.470Z,24.00
2018-05-25T10:17:27.235Z,25.00
2018-05-25T10:19:57.847Z,26.67
2018-05-25T10:22:28.501Z,24.00
2018-05-25T10:25:00.643Z,24.00
2018-05-25T10:27:31.369Z,24.00
2018-05-25T10:30:04.203Z,24.00
2018-05-25T10:32:36.150Z,24.67
2018-05-25T10:35:06.808Z,24.33
2018-05-25T10:37:38.400Z,22.33
2018-05-25T10:40:09.440Z,24.00
2018-05-25T10:42:40.047Z,23.67
2018-05-25T10:45:15.568Z,25.00
2018-05-25T10:47:46.255Z,24.00
2018-05-25T10:50:16.893Z,26.00
2018-05-25T10:52:48.792Z,23.00
2018-05-25T10:55:19.352Z,22.33
2018-05-25T10:57:49.895Z,21.67
2018-05-25T11:00:20.458Z,22.00
2018-05-25T11:02:51.065Z,21.00
2018-05-25T11:05:21.978Z,23.67
2018-05-25T11:07:53.079Z,23.00
2018-05-25T11:10:23.649Z,21.00
2018-05-25T11:12:54.575Z,22.67
2018-05-25T11:15:25.163Z,21.33
2018-05-25T11:17:55.491Z,23.67
2018-05-25T11:20:26.083Z,24.00
2018-05-25T11:22:56.614Z,21.00
2018-05-25T11:25:27.554Z,22.67
2018-05-25T11:27:59.101Z,21.67
2018-05-25T11:30:29.769Z,21.00
2018-05-25T11:33:00.942Z,22.67
2018-05-25T11:35:31.579Z,20.00
2018-05-25T11:38:02.130Z,22.33
2018-05-25T11:40:34.651Z,23.67
2018-05-25T11:43:05.314Z,23.00
2018-05-25T11:45:36.352Z,20.33
2018-05-25T11:48:06.980Z,20.00
2018-05-25T11:50:37.791Z,19.67
2018-05-25T11:53:08.536Z,18.67
2018-05-25T11:55:39.193Z,19.67
2018-05-25T11:58:10.263Z,18.00
2018-05-25T12:00:41.267Z,19.67
2018-05-25T12:03:12.592Z,20.00
2018-05-25T12:05:43.263Z,16.00
2018-05-25T12:08:13.891Z,17.00
2018-05-25T12:10:44.945Z,14.33
2018-05-25T12:13:15.860Z,19.67
2018-05-25T12:15:46.528Z,16.33
2018-05-25T12:18:17.554Z,19.33
2018-05-25T12:20:48.125Z,16.67
2018-05-25T12:23:18.607Z,15.33
2018-05-25T12:25:49.335Z,19.33
2018-05-25T12:28:19.844Z,18.33
2018-05-25T12:30:52.706Z,19.00
2018-05-25T12:33:23.277Z,17.33
2018-05-25T12:35:53.839Z,16.00
2018-05-25T12:38:25.560Z,15.33
2018-05-25T12:40:57.023Z,15.67
2018-05-25T12:43:27.600Z,15.67
2018-05-25T12:45:58.224Z,12.33
2018-05-25T12:48:28.416Z,13.00
2018-05-25T12:51:01.300Z,13.67
2018-05-25T12:53:32.645Z,14.33
2018-05-25T12:56:03.187Z,13.67
2018-05-25T12:58:35.545Z,11.67
2018-05-25T13:01:08.434Z,11.00
2018-05-25T13:03:41.159Z,11.33
2018-05-25T13:06:13.475Z,11.33
2018-05-25T13:08:44.061Z,10.67
2018-05-25T13:11:15.062Z,12.67
2018-05-25T13:13:46.664Z,10.00
2018-05-25T13:16:18.115Z,10.00
2018-05-25T13:18:50.442Z,9.50
2018-05-25T13:21:22.707Z,9.25
2018-05-25T13:23:54.799Z,9.33
2018-05-25T13:26:26.226Z,8.67
2018-05-25T13:28:57.617Z,8.00
2018-05-25T13:31:29.034Z,8.67
2018-05-25T13:34:00.571Z,9.67
2018-05-25T13:36:33.139Z,9.00
2018-05-25T13:39:05.955Z,10.33
2018-05-25T13:41:37.475Z,9.00
2018-05-25T13:44:09.172Z,9.33
2018-05-25T13:46:40.715Z,11.33
2018-05-25T13:49:12.919Z,9.33
2018-05-25T13:51:45.987Z,10.67
2018-05-25T13:54:18.287Z,10.33
2018-05-25T13:56:54.285Z,10.00
2018-05-25T13:59:25.691Z,8.33
2018-05-25T14:01:56.974Z,11.67
2018-05-25T14:04:28.672Z,10.33
2018-05-25T14:07:01.089Z,15.00
2018-05-25T14:09:33.495Z,13.67
2018-05-25T14:12:03.987Z,13.67
2018-05-25T14:14:34.493Z,13.00
2018-05-25T14:17:06.005Z,12.33
2018-05-25T14:19:36.498Z,13.33
2018-05-25T14:22:07.776Z,11.67
2018-05-25T14:24:38.579Z,13.33
2018-05-25T14:27:09.867Z,12.33
2018-05-25T14:29:42.460Z,12.67
2018-05-25T14:32:14.078Z,12.67
2018-05-25T14:34:46.422Z,11.67
2018-05-25T14:37:16.988Z,13.00
2018-05-25T14:39:47.551Z,14.00
2018-05-25T14:42:20.277Z,14.00
2018-05-25T14:44:52.969Z,12.67
2018-05-25T14:47:23.599Z,11.67
2018-05-25T14:49:56.413Z,13.00
2018-05-25T14:52:28.906Z,12.00
2018-05-25T14:55:00.415Z,11.67
2018-05-25T14:57:31.123Z,11.67
2018-05-25T15:00:06.375Z,12.33
2018-05-25T15:02:37.306Z,12.33
2018-05-25T15:05:08.780Z,10.67
2018-05-25T15:07:40.230Z,11.33
2018-05-25T15:10:11.138Z,11.33
2018-05-25T15:12:43.638Z,12.00
2018-05-25T15:15:16.321Z,11.00
2018-05-25T15:17:48.681Z,12.00
2018-05-25T15:20:20.149Z,11.67
2018-05-25T15:22:52.847Z,12.00
2018-05-25T15:25:24.950Z,11.33
2018-05-25T15:27:55.198Z,10.67
2018-05-25T15:30:28.895Z,12.00
2018-05-25T15:33:00.380Z,11.00
2018-05-25T15:35:32.891Z,11.00
2018-05-25T15:38:04.933Z,11.33
2018-05-25T15:40:36.003Z,9.67
2018-05-25T15:43:09.714Z,11.00
2018-05-25T15:45:41.254Z,10.00
2018-05-25T15:48:14.008Z,11.00
2018-05-25T15:50:44.524Z,9.67
2018-05-25T15:53:15.014Z,11.67
2018-05-25T15:55:46.892Z,11.33
2018-05-25T15:58:18.067Z,10.67
2018-05-25T16:00:49.583Z,10.00
2018-05-25T16:03:20.999Z,10.00
2018-05-25T16:05:53.315Z,11.00
2018-05-25T16:08:24.886Z,12.67
2018-05-25T16:10:56.015Z,11.33
2018-05-25T16:13:27.442Z,10.33
2018-05-25T16:15:59.907Z,10.33
2018-05-25T16:18:31.119Z,11.00
2018-05-25T16:21:02.575Z,11.00
2018-05-25T16:23:35.573Z,11.67
2018-05-25T16:26:07.358Z,9.33
2018-05-25T16:28:39.165Z,9.00
2018-05-25T16:31:10.319Z,10.00
2018-05-25T16:33:41.417Z,8.33
2018-05-25T16:36:13.264Z,8.00
2018-05-25T16:38:44.367Z,9.00
2018-05-25T16:41:15.467Z,8.67
2018-05-25T16:43:46.672Z,9.67
2018-05-25T16:46:17.731Z,8.33
2018-05-25T16:48:49.142Z,8.00
2018-05-25T16:51:20.287Z,8.00
2018-05-25T16:53:52.119Z,8.00
2018-05-25T16:56:24.508Z,8.67
2018-05-25T16:58:56.155Z,8.00
2018-05-25T17:01:28.414Z,7.67
2018-05-25T17:03:59.568Z,8.67
2018-05-25T17:06:30.627Z,9.00
2018-05-25T17:09:02.071Z,9.67
2018-05-25T17:11:33.209Z,9.00
2018-05-25T17:14:05.369Z,6.75
2018-05-25T17:16:37.882Z,7.00
2018-05-25T17:19:09.111Z,8.00
2018-05-25T17:21:40.433Z,9.00
2018-05-25T17:24:11.536Z,7.33
2018-05-25T17:26:42.924Z,8.00
2018-05-25T17:29:14.423Z,8.00
2018-05-25T17:31:45.543Z,8.67
2018-05-25T17:34:16.632Z,7.33
2018-05-25T17:36:48.301Z,9.33
2018-05-25T17:39:19.690Z,8.00
2018-05-25T17:41:50.811Z,8.00
2018-05-25T17:44:22.170Z,9.33
2018-05-25T17:46:53.587Z,9.00
2018-05-25T17:49:25.427Z,8.33
2018-05-25T17:51:56.825Z,7.00
2018-05-25T17:54:29.085Z,7.00
2018-05-25T17:57:00.239Z,8.33
2018-05-25T17:59:31.507Z,6.67
2018-05-25T18:02:04.565Z,10.00
2018-05-25T18:04:35.905Z,8.67
2018-05-25T18:07:07.410Z,9.00
2018-05-25T18:09:38.490Z,10.67
2018-05-25T18:12:09.729Z,10.00
2018-05-25T18:14:41.311Z,11.33
2018-05-25T18:17:12.463Z,9.67
2018-05-25T18:19:43.795Z,9.67
2018-05-25T18:22:14.998Z,8.00
2018-05-25T18:24:46.107Z,9.67
2018-05-25T18:27:17.515Z,9.67
2018-05-25T18:29:48.867Z,9.00
2018-05-25T18:32:20.741Z,10.00
2018-05-25T18:34:52.220Z,11.67
2018-05-25T18:37:24.256Z,10.33
2018-05-25T18:39:56.345Z,11.00
2018-05-25T18:42:28.893Z,8.67
2018-05-25T18:45:00.095Z,9.33
2018-05-25T18:47:32.382Z,10.00
2018-05-25T18:50:03.918Z,9.00
2018-05-25T18:52:35.053Z,10.33
2018-05-25T18:55:06.252Z,10.67
2018-05-25T18:57:37.333Z,9.33
2018-05-25T19:00:08.813Z,10.67
2018-05-25T19:02:39.399Z,11.67
2018-05-25T19:05:11.680Z,11.00
2018-05-25T19:07:42.815Z,10.67
2018-05-25T19:10:14.833Z,10.33
2018-05-25T19:12:46.851Z,11.00
2018-05-25T19:15:19.275Z,9.33
2018-05-25T19:17:50.320Z,9.00
2018-05-25T19:20:21.464Z,9.00
2018-05-25T19:22:52.999Z,9.67
2018-05-25T19:25:25.872Z,10.67
2018-05-25T19:27:56.998Z,9.00
2018-05-25T19:30:28.385Z,11.67
2018-05-25T19:32:58.674Z,10.67
2018-05-25T19:35:29.842Z,9.67
2018-05-25T19:38:01.906Z,9.00
2018-05-25T19:40:33.931Z,12.00
2018-05-25T19:43:05.347Z,12.00
2018-05-25T19:45:36.551Z,11.00
2018-05-25T19:48:07.897Z,11.00
2018-05-25T19:50:39.020Z,10.33
2018-05-25T19:53:10.523Z,10.00
2018-05-25T19:55:42.035Z,8.67
2018-05-25T19:58:14.086Z,11.33
2018-05-25T20:00:44.524Z,12.67
2018-05-25T20:03:16.839Z,9.00
2018-05-25T20:05:47.058Z,11.67
2018-05-25T20:08:17.312Z,11.00
2018-05-25T20:10:48.415Z,12.00
2018-05-25T20:13:18.723Z,10.67
2018-05-25T20:15:50.125Z,12.33
2018-05-25T20:18:21.068Z,14.67
2018-05-25T20:20:51.272Z,16.67
2018-05-25T20:23:21.620Z,18.00
2018-05-25T20:25:51.877Z,17.33
2018-05-25T20:28:22.397Z,19.00
2018-05-25T20:30:52.782Z,18.67
2018-05-25T20:33:22.954Z,13.00
2018-05-25T20:35:54.378Z,14.33
2018-05-25T20:38:24.647Z,13.00
2018-05-25T20:40:54.943Z,13.67
2018-05-25T20:43:25.372Z,14.33
2018-05-25T20:45:55.604Z,12.00
2018-05-25T20:48:29.136Z,11.00
2018-05-25T20:50:59.375Z,11.33
2018-05-25T20:53:31.680Z,11.00
2018-05-25T20:56:03.773Z,10.00
2018-05-25T20:58:35.940Z,11.00
2018-05-25T21:01:07.332Z,11.00
2018-05-25T21:03:38.455Z,10.00
2018-05-25T21:06:10.179Z,11.00
2018-05-25T21:08:40.375Z,9.67
2018-05-25T21:11:11.614Z,10.00
2018-05-25T21:13:42.995Z,10.00
2018-05-25T21:16:14.052Z,10.00
2018-05-25T21:18:45.207Z,8.33
2018-05-25T21:21:16.863Z,8.33
2018-05-25T21:23:48.075Z,10.00
2018-05-25T21:26:19.188Z,10.67
2018-05-25T21:28:50.483Z,10.00
2018-05-25T21:31:21.611Z,10.67
2018-05-25T21:33:53.727Z,10.00
2018-05-25T21:36:24.952Z,10.00
2018-05-25T21:38:56.104Z,9.00
2018-05-25T21:41:28.685Z,7.67
2018-05-25T21:43:59.886Z,11.00
2018-05-25T21:46:31.040Z,10.00
2018-05-25T21:49:02.129Z,10.00
2018-05-25T21:51:33.215Z,9.00
2018-05-25T21:54:04.626Z,10.00
2018-05-25T21:56:35.881Z,10.00
2018-05-25T21:59:07.508Z,10.00
2018-05-25T22:01:38.985Z,10.00
2018-05-25T22:04:09.653Z,10.00
2018-05-25T22:06:40.781Z,9.67
2018-05-25T22:09:11.950Z,9.67
2018-05-25T22:11:44.015Z,10.67
2018-05-25T22:14:16.303Z,10.33
2018-05-25T22:16:47.488Z,10.33
2018-05-25T22:19:18.831Z,10.67
2018-05-25T22:21:50.792Z,8.33
2018-05-25T22:24:21.874Z,10.00
2018-05-25T22:26:54.335Z,9.33
2018-05-25T22:29:25.423Z,11.00
2018-05-25T22:31:57.495Z,10.00
2018-05-25T22:34:29.119Z,10.33
2018-05-25T22:36:59.288Z,10.00
2018-05-25T22:39:31.625Z,10.33
2018-05-25T22:42:00.429Z,10.00
2018-05-25T22:44:42.717Z,10.00
2018-05-25T22:47:31.461Z,10.67
2018-05-25T22:50:20.603Z,10.00
2018-05-25T22:53:00.287Z,10.00
2018-05-25T22:55:31.048Z,8.67
2018-05-25T22:58:02.136Z,10.00
2018-05-25T23:00:33.263Z,8.33
2018-05-25T23:03:05.850Z,10.00
2018-05-25T23:05:37.242Z,9.00
2018-05-25T23:08:08.626Z,9.00
2018-05-25T23:10:39.989Z,9.00
2018-05-25T23:13:11.474Z,10.67
2018-05-25T23:15:43.150Z,9.00
2018-05-25T23:18:15.450Z,11.00
2018-05-25T23:20:46.801Z,10.00
2018-05-25T23:23:19.071Z,11.00
2018-05-25T23:25:50.281Z,9.00
2018-05-25T23:28:23.200Z,9.67
2018-05-25T23:30:55.431Z,9.00
2018-05-25T23:33:27.050Z,10.00
2018-05-25T23:35:58.439Z,9.67
2018-05-25T23:38:31.014Z,9.00
2018-05-25T23:41:03.703Z,10.00
2018-05-25T23:43:36.233Z,10.67
2018-05-25T23:46:07.788Z,9.00
2018-05-25T23:48:44.748Z,11.33
2018-05-25T23:51:17.059Z,10.00
2018-05-25T23:53:48.434Z,9.67
2018-05-25T23:58:56.364Z,10.38
